Time;durP1;ratioP1;P1;durP2;ratioP2;P2;SDS_P1;SDS_P2;PMS_P1;PMS_P2;Temp;Humidity;BMP_temperature;BMP_pressure;BME280_temperature;BME280_humidity;BME280_pressure;Samples;Min_cycle;Max_cycle;Signal;HPM_P1;HPM_P2
2022/07/20 00:02:21;;;;;;;;;;;;;;;-142.75;76.70;75342.16;5052408;28;19992;-68
2022/07/20 00:04:47;;;;;;;;;;;;;;;-142.75;64.35;75279.19;5052592;28;19916;-69
2022/07/20 00:07:12;;;;;;;;;;;;;;;-142.75;66.05;75245.72;5052517;28;19920;-71
2022/07/20 00:12:22;;;;;;;;;;;;;;;-142.75;67.10;75222.13;5052528;28;19919;-69
2022/07/20 00:14:47;;;;;;;;;;;;;;;-142.75;66.36;75212.28;5052202;28;20013;-70
2022/07/20 00:17:13;;;;;;;;;;;;;;;-142.75;65.23;75192.59;5051713;28;20306;-70
2022/07/20 00:19:38;;;;;;;;;;;;;;;-142.75;63.78;75184.72;5052045;28;19913;-71
2022/07/20 00:22:04;;;;;;;;;;;;;;;-142.75;64.66;75188.66;5052293;28;19920;-71
2022/07/20 00:24:29;;;;;;;;;;;;;;;-142.75;64.10;75192.59;5052280;28;19939;-69
2022/07/20 00:26:54;;;;;;;;;;;;;;;-142.75;66.27;75182.75;5050964;28;19920;-70
2022/07/20 00:29:19;;;;;;;;;;;;;;;-142.75;66.79;75188.66;5051726;28;19917;-69
2022/07/20 00:31:45;;;;;;;;;;;;;;;-142.75;67.10;75204.41;5052086;28;19917;-70
2022/07/20 00:34:10;;;;;;;;;;;;;;;-142.75;69.36;75212.28;5052033;28;19921;-70
2022/07/20 00:36:35;;;;;;;;;;;;;;;-142.75;70.25;75216.22;5052185;28;19923;-71
2022/07/20 00:39:00;;;;;;;;;;;;;;;-142.75;75.94;75224.09;5052194;28;19964;-71
2022/07/20 00:41:25;;;;;;;;;;;;;;;-142.75;68.94;75241.78;5052119;28;20019;-71
2022/07/20 00:43:55;;;;;;;;;;;;;;;-142.75;69.66;75239.81;5051110;28;19920;-70
2022/07/20 00:46:20;;;;;;;;;;;;;;;-142.75;70.78;75247.69;5052001;28;19912;-69
2022/07/20 00:48:45;;;;;;;;;;;;;;;-142.75;71.38;75265.41;5051663;28;19913;-70
2022/07/20 00:51:10;;;;;;;;;;;;;;;-142.75;69.97;75283.13;5051980;28;20011;-71
2022/07/20 00:53:36;;;;;;;;;;;;;;;-142.75;71.21;75287.06;5051977;28;19994;-69
2022/07/20 00:56:01;;;;;;;;;;;;;;;-142.75;77.80;75312.63;5051847;28;19917;-71
2022/07/20 00:58:27;;;;;;;;;;;;;;;-142.75;77.25;75310.66;5051395;28;20402;-70
2022/07/20 01:00:52;;;;;;;;;;;;;;;-142.75;80.21;75306.72;5051792;28;20046;-71
2022/07/20 01:03:17;;;;;;;;;;;;;;;-142.75;85.11;75314.59;5051764;28;19913;-70
2022/07/20 01:05:42;;;;;;;;;;;;;;;-142.75;85.83;75318.53;5050579;28;19912;-71
2022/07/20 01:08:07;;;;;;;;;;;;;;;-142.75;85.14;75334.28;5050211;28;20263;-71
2022/07/20 01:10:33;;;;;;;;;;;;;;;-142.75;86.52;75338.22;5051801;28;20050;-70
2022/07/20 01:12:58;;;;;;;;;;;;;;;-142.75;85.44;75342.16;5051754;28;19959;-71
2022/07/20 01:15:23;;;;;;;;;;;;;;;-142.75;90.56;75350.03;5051548;28;20017;-70
2022/07/20 01:17:48;;;;;;;;;;;;;;;-142.75;90.25;75361.84;5051473;28;19920;-70
2022/07/20 01:20:15;;;;;;;;;;;;;;;-142.75;84.45;75369.69;5051556;28;19920;-70
2022/07/20 01:22:40;;;;;;;;;;;;;;;-142.75;79.40;75385.44;5051696;28;19916;-70
2022/07/20 01:25:05;;;;;;;;;;;;;;;-142.75;77.78;75385.44;5051635;28;19928;-71
2022/07/20 01:27:32;;;;;;;;;;;;;;;-142.75;78.89;75391.34;5051633;28;19913;-69
2022/07/20 01:29:58;;;;;;;;;;;;;;;-142.75;81.31;75395.28;5055079;28;20007;-71
2022/07/20 01:32:23;;;;;;;;;;;;;;;-142.75;77.77;75393.31;5055425;28;20062;-70
2022/07/20 01:34:48;;;;;;;;;;;;;;;-142.75;76.78;75405.13;5055477;28;19917;-71
2022/07/20 01:37:13;;;;;;;;;;;;;;;-142.75;76.05;75414.97;5055279;28;19913;-71
2022/07/20 01:39:38;;;;;;;;;;;;;;;-142.75;87.21;75422.84;5054944;28;19916;-70
2022/07/20 01:42:04;;;;;;;;;;;;;;;-142.75;96.06;75428.75;5055192;28;20366;-71
2022/07/20 01:44:29;;;;;;;;;;;;;;;-142.75;100.00;75436.59;5055000;28;19913;-71
2022/07/20 01:46:54;;;;;;;;;;;;;;;-142.75;100.00;75436.59;5055094;28;19908;-70
2022/07/20 01:49:19;;;;;;;;;;;;;;;-142.75;100.00;75442.50;5053413;28;20431;-70
2022/07/20 01:51:45;;;;;;;;;;;;;;;-142.75;100.00;75460.22;5054943;28;19920;-71
2022/07/20 01:54:10;;;;;;;;;;;;;;;-142.75;100.00;75470.06;5053613;28;19933;-71
2022/07/20 01:56:35;;;;;;;;;;;;;;;-142.75;100.00;75483.84;5054889;28;19913;-71
2022/07/20 01:59:01;;;;;;;;;;;;;;;-142.75;100.00;75495.66;5054327;28;19917;-71
2022/07/20 02:01:26;;;;;;;;;;;;;;;-142.75;100.00;75499.59;5054795;28;19924;-71
2022/07/20 02:03:51;;;;;;;;;;;;;;;-142.75;100.00;75509.44;5054787;28;19924;-71
2022/07/20 02:06:16;;;;;;;;;;;;;;;-142.75;100.00;75521.22;5054699;28;20305;-71
2022/07/20 02:08:41;;;;;;;;;;;;;;;-142.75;100.00;75531.06;5054374;28;20378;-71
2022/07/20 02:11:07;;;;;;;;;;;;;;;-142.75;100.00;75531.06;5054612;28;19913;-70
2022/07/20 02:13:34;;;;;;;;;;;;;;;-142.75;100.00;75542.88;5053193;28;20281;-70
2022/07/20 02:16:15;;;;;;;;;;;;;;;-142.75;100.00;75546.81;5054469;28;19927;-71
2022/07/20 02:18:40;;;;;;;;;;;;;;;-142.75;100.00;75542.88;5054219;28;19917;-71
2022/07/20 02:21:05;;;;;;;;;;;;;;;-142.75;100.00;75546.81;5053176;28;19942;-71
2022/07/20 02:23:31;;;;;;;;;;;;;;;-142.75;100.00;75554.69;5053152;28;20370;-71
2022/07/20 02:25:56;;;;;;;;;;;;;;;-142.75;100.00;75564.53;5054264;28;20382;-71
2022/07/20 02:28:22;;;;;;;;;;;;;;;-142.75;100.00;75570.44;5053889;28;19935;-71
2022/07/20 02:30:47;;;;;;;;;;;;;;;-142.75;100.00;75566.50;5054248;28;19919;-70
2022/07/20 02:33:12;;;;;;;;;;;;;;;-142.75;100.00;75568.47;5054208;28;20454;-70
2022/07/20 02:35:37;;;;;;;;;;;;;;;-142.75;100.00;75574.38;5054079;28;19921;-71
2022/07/20 02:38:02;;;;;;;;;;;;;;;-142.75;100.00;75574.38;5053783;28;19912;-71
2022/07/20 02:40:28;;;;;;;;;;;;;;;-142.75;100.00;75586.19;5053475;28;19913;-71
2022/07/20 02:42:53;;;;;;;;;;;;;;;-142.75;100.00;75594.06;5053942;28;19913;-71
2022/07/20 02:45:18;;;;;;;;;;;;;;;-142.75;100.00;75601.91;5054034;28;19917;-71
2022/07/20 02:47:44;;;;;;;;;;;;;;;-142.75;100.00;75605.84;5053691;28;20389;-70
2022/07/20 02:50:11;;;;;;;;;;;;;;;-142.75;100.00;75613.72;5053784;28;19913;-71
2022/07/20 02:52:36;;;;;;;;;;;;;;;-142.75;100.00;75613.72;5053877;28;19913;-71
2022/07/20 02:55:01;;;;;;;;;;;;;;;-142.75;100.00;75609.78;5053739;28;20007;-71
2022/07/20 02:57:26;;;;;;;;;;;;;;;-142.75;100.00;75605.84;5053422;28;19920;-70
2022/07/20 02:59:51;;;;;;;;;;;;;;;-142.75;100.00;75613.72;5053431;28;19916;-71
2022/07/20 03:02:17;;;;;;;;;;;;;;;-142.75;100.00;75619.63;5053705;28;19920;-71
2022/07/20 03:04:42;;;;;;;;;;;;;;;-142.75;100.00;75623.56;5053632;28;19913;-70
2022/07/20 03:07:07;;;;;;;;;;;;;;;-142.75;100.00;75621.59;5052343;28;20527;-70
2022/07/20 03:09:32;;;;;;;;;;;;;;;-142.75;100.00;75631.44;5053124;28;19923;-72
2022/07/20 03:11:57;;;;;;;;;;;;;;;-142.75;100.00;75639.31;5053349;28;19919;-71
2022/07/20 03:14:23;;;;;;;;;;;;;;;-142.75;100.00;75641.28;5053368;28;20011;-72
2022/07/20 03:16:51;;;;;;;;;;;;;;;-142.75;100.00;75643.25;5053422;28;20001;-71
2022/07/20 03:19:16;;;;;;;;;;;;;;;-142.75;100.00;75655.06;5052988;28;19935;-70
2022/07/20 03:21:41;;;;;;;;;;;;;;;-142.75;100.00;75653.09;5053256;28;20267;-71
2022/07/20 03:24:07;;;;;;;;;;;;;;;-142.75;100.00;75645.22;5053247;28;19997;-71
2022/07/20 03:26:32;;;;;;;;;;;;;;;-142.75;100.00;75653.09;5053048;28;19913;-71
2022/07/20 03:28:57;;;;;;;;;;;;;;;-142.75;100.00;75662.94;5052823;28;20353;-71
2022/07/20 03:31:22;;;;;;;;;;;;;;;-142.75;100.00;75668.84;5053104;28;19913;-71
2022/07/20 03:33:47;;;;;;;;;;;;;;;-142.75;100.00;75670.81;5053070;28;19913;-71
2022/07/20 03:36:12;;;;;;;;;;;;;;;-142.75;100.00;75668.84;5052923;28;19917;-71
2022/07/20 03:38:38;;;;;;;;;;;;;;;-142.75;100.00;75680.63;5052567;28;19913;-71
2022/07/20 03:41:03;;;;;;;;;;;;;;;-142.75;100.00;75688.50;5051548;28;19948;-71
2022/07/20 03:43:28;;;;;;;;;;;;;;;-142.75;100.00;75704.25;5052844;28;19917;-71
2022/07/20 03:45:53;;;;;;;;;;;;;;;-142.75;100.00;75708.19;5052779;28;19913;-71
2022/07/20 03:48:19;;;;;;;;;;;;;;;-142.75;100.00;75706.22;5052348;28;19920;-71
2022/07/20 03:50:44;;;;;;;;;;;;;;;-142.75;100.00;75706.22;5052564;28;19912;-70
2022/07/20 03:53:09;;;;;;;;;;;;;;;-142.75;100.00;75698.34;5052016;28;19959;-71
2022/07/20 03:55:35;;;;;;;;;;;;;;;-142.75;100.00;75698.34;5052408;28;19962;-70
2022/07/20 03:58:00;;;;;;;;;;;;;;;-142.75;100.00;75708.19;5073090;22;19928;-71
2022/07/20 04:00:25;;;;;;;;;;;;;;;-142.75;100.00;75706.22;5051109;28;19929;-70
2022/07/20 04:02:50;;;;;;;;;;;;;;;-142.75;100.00;75710.16;5050811;28;19913;-71
2022/07/20 04:05:16;;;;;;;;;;;;;;;-142.75;100.00;75704.25;5052491;28;19999;-70
2022/07/20 04:07:41;;;;;;;;;;;;;;;-142.75;100.00;75712.13;5052309;28;20385;-69
2022/07/20 04:10:06;;;;;;;;;;;;;;;-142.75;100.00;75710.16;5052252;28;19913;-71
2022/07/20 04:12:31;;;;;;;;;;;;;;;-142.75;100.00;75716.06;5052309;28;20279;-71
2022/07/20 04:14:57;;;;;;;;;;;;;;;-142.75;100.00;75708.19;5052263;28;20344;-71
2022/07/20 04:17:22;;;;;;;;;;;;;;;-142.75;100.00;75708.19;5052336;28;19913;-70
2022/07/20 04:19:49;;;;;;;;;;;;;;;-142.75;100.00;75708.19;5052021;28;19913;-70
2022/07/20 04:22:14;;;;;;;;;;;;;;;-142.75;100.00;75704.25;5052312;28;20396;-71
2022/07/20 04:24:39;;;;;;;;;;;;;;;-142.75;100.00;75712.13;5052242;28;20015;-71
2022/07/20 04:27:04;;;;;;;;;;;;;;;-142.75;100.00;75700.31;5050849;28;20286;-71
2022/07/20 04:29:30;;;;;;;;;;;;;;;-142.75;100.00;75700.31;5050571;28;19912;-71
2022/07/20 04:31:55;;;;;;;;;;;;;;;-142.75;100.00;75696.38;5052244;28;19913;-71
2022/07/20 04:34:20;;;;;;;;;;;;;;;-142.75;100.00;75692.44;5052112;28;20352;-71
2022/07/20 04:36:46;;;;;;;;;;;;;;;-142.75;100.00;75696.38;5052146;28;19912;-71
2022/07/20 04:39:11;;;;;;;;;;;;;;;-142.75;100.00;75700.31;5050424;28;19916;-71
2022/07/20 04:41:36;;;;;;;;;;;;;;;-142.75;100.00;75694.41;5050751;28;19913;-70
2022/07/20 04:44:01;;;;;;;;;;;;;;;-142.75;100.00;75698.34;5052005;28;19919;-71
2022/07/20 04:46:28;;;;;;;;;;;;;;;-142.75;100.00;75704.25;5052083;28;20290;-70
2022/07/20 04:48:53;;;;;;;;;;;;;;;-142.75;100.00;75716.06;5051673;28;19939;-70
2022/07/20 04:51:18;;;;;;;;;;;;;;;-142.75;100.00;75712.13;5050754;28;20282;-70
2022/07/20 04:53:44;;;;;;;;;;;;;;;-142.75;100.00;75710.16;5051944;28;19958;-70
2022/07/20 04:56:12;;;;;;;;;;;;;;;-142.75;100.00;75721.97;5051792;28;19920;-70
2022/07/20 04:58:37;;;;;;;;;;;;;;;-142.75;100.00;75721.97;5051488;28;20003;-69
2022/07/20 05:01:02;;;;;;;;;;;;;;;-142.75;100.00;75723.94;5051850;28;20353;-71
2022/07/20 05:03:28;;;;;;;;;;;;;;;-142.75;100.00;75718.03;5053659;28;19974;-70
2022/07/20 05:05:53;;;;;;;;;;;;;;;-142.75;100.00;75708.19;5054661;28;20374;-70
2022/07/20 05:08:18;;;;;;;;;;;;;;;-142.75;100.00;75710.16;5055577;28;20335;-70
2022/07/20 05:10:44;;;;;;;;;;;;;;;-142.75;100.00;75708.19;5054454;28;19913;-70
2022/07/20 05:13:09;;;;;;;;;;;;;;;-142.75;100.00;75714.09;5055608;28;19967;-70
2022/07/20 05:15:34;;;;;;;;;;;;;;;-142.75;100.00;75716.06;5055606;28;19924;-70
2022/07/20 05:17:59;;;;;;;;;;;;;;;-142.75;100.00;75710.16;5055359;28;19913;-70
2022/07/20 05:20:24;;;;;;;;;;;;;;;-142.75;100.00;75714.09;5054337;28;20394;-71
2022/07/20 05:22:50;;;;;;;;;;;;;;;-142.75;100.00;75712.13;5055501;28;20314;-71
2022/07/20 05:25:15;;;;;;;;;;;;;;;-142.75;100.00;75708.19;5054243;28;19957;-70
2022/07/20 05:27:40;;;;;;;;;;;;;;;-142.75;100.00;75702.28;5055252;28;19960;-71
2022/07/20 05:30:06;;;;;;;;;;;;;;;-142.75;100.00;75702.28;5053943;28;19919;-69
2022/07/20 05:32:31;;;;;;;;;;;;;;;-142.75;100.00;75694.41;5054124;28;19917;-70
2022/07/20 05:34:56;;;;;;;;;;;;;;;-142.75;100.00;75680.63;5055280;28;19971;-70
2022/07/20 05:37:22;;;;;;;;;;;;;;;-142.75;100.00;75672.78;5055244;28;19999;-70
2022/07/20 05:39:47;;;;;;;;;;;;;;;-142.75;100.00;75676.69;5054843;28;19917;-71
2022/07/20 05:42:13;;;;;;;;;;;;;;;-142.75;100.00;75666.88;5055130;28;19920;-70
2022/07/20 05:44:38;;;;;;;;;;;;;;;-142.75;100.00;75662.94;5053889;28;19979;-71
2022/07/20 05:47:06;;;;;;;;;;;;;;;-142.75;100.00;75637.34;5055264;28;20298;-70
2022/07/20 05:49:31;;;;;;;;;;;;;;;-142.75;100.00;75641.28;5054783;28;20595;-69
2022/07/20 05:51:57;;;;;;;;;;;;;;;-142.75;100.00;75637.34;5053752;28;20012;-71
2022/07/20 05:54:22;;;;;;;;;;;;;;;-142.75;100.00;75647.19;5053506;28;19924;-70
2022/07/20 05:56:47;;;;;;;;;;;;;;;-142.75;100.00;75660.97;5054906;28;19935;-70
2022/07/20 05:59:12;;;;;;;;;;;;;;;-142.75;100.00;75672.78;5053139;28;19943;-71
2022/07/20 06:01:43;;;;;;;;;;;;;;;-142.75;100.00;75662.94;5054832;28;19913;-70
2022/07/20 06:04:08;;;;;;;;;;;;;;;-142.75;100.00;75660.97;5054735;28;19920;-70
2022/07/20 06:06:33;;;;;;;;;;;;;;;-142.75;100.00;75657.03;5054717;28;19913;-70
2022/07/20 06:08:59;;;;;;;;;;;;;;;-142.75;100.00;75664.91;5054253;28;19913;-70
2022/07/20 06:11:24;;;;;;;;;;;;;;;-142.75;100.00;75672.78;5054653;28;20015;-70
2022/07/20 06:13:49;;;;;;;;;;;;;;;-142.75;100.00;75672.78;5054550;28;20389;-70
2022/07/20 06:16:14;;;;;;;;;;;;;;;-142.75;100.00;75678.66;5052356;28;20371;-71
2022/07/20 06:18:39;;;;;;;;;;;;;;;-142.75;100.00;75688.50;5054176;28;19920;-71
2022/07/20 06:21:05;;;;;;;;;;;;;;;-142.75;100.00;75694.41;5054471;28;19920;-70
2022/07/20 06:23:30;;;;;;;;;;;;;;;-142.75;100.00;75708.19;5054366;28;19913;-70
2022/07/20 06:25:55;;;;;;;;;;;;;;;-142.75;100.00;75714.09;5053073;28;20011;-70
2022/07/20 06:28:20;;;;;;;;;;;;;;;-142.75;100.00;75741.66;5053973;28;20100;-70
2022/07/20 06:30:45;;;;;;;;;;;;;;;-142.75;100.00;75741.66;5053006;28;19912;-71
2022/07/20 06:33:11;;;;;;;;;;;;;;;-142.75;100.00;75755.44;5054219;28;20393;-70
2022/07/20 06:35:36;;;;;;;;;;;;;;;-142.75;100.00;75755.44;5054136;28;20011;-70
2022/07/20 06:38:01;;;;;;;;;;;;;;;-142.75;100.00;75747.56;5053779;28;19941;-70
2022/07/20 06:40:27;;;;;;;;;;;;;;;-142.75;100.00;75725.91;5054029;28;19959;-70
2022/07/20 06:42:52;;;;;;;;;;;;;;;-142.75;100.00;75696.38;5052787;28;19912;-70
2022/07/20 06:45:17;;;;;;;;;;;;;;;-142.75;100.00;75688.50;5054052;28;19912;-70
2022/07/20 06:47:42;;;;;;;;;;;;;;;-142.75;100.00;75684.56;5052439;28;20296;-68
2022/07/20 06:50:08;;;;;;;;;;;;;;;-142.75;100.00;75694.41;5053821;28;19913;-70
2022/07/20 06:52:34;;;;;;;;;;;;;;;-142.75;100.00;75704.25;5053808;28;20298;-70
2022/07/20 06:54:59;;;;;;;;;;;;;;;-142.75;100.00;75712.13;5053715;28;20424;-70
2022/07/20 06:57:24;;;;;;;;;;;;;;;-142.75;100.00;75725.91;5053765;28;19913;-71
2022/07/20 06:59:50;;;;;;;;;;;;;;;-142.75;100.00;75735.75;5053314;28;20001;-70
2022/07/20 07:02:15;;;;;;;;;;;;;;;-142.75;100.00;75721.97;5053660;28;19913;-71
2022/07/20 07:04:40;;;;;;;;;;;;;;;-142.75;100.00;75723.94;5053662;28;19913;-71
2022/07/20 07:07:06;;;;;;;;;;;;;;;-142.75;100.00;75739.69;5053582;28;19952;-70
2022/07/20 07:09:31;;;;;;;;;;;;;;;-142.75;100.00;75751.50;5053185;28;19917;-70
2022/07/20 07:11:56;;;;;;;;;;;;;;;-142.75;100.00;75721.97;5053561;28;19919;-71
2022/07/20 07:14:22;;;;;;;;;;;;;;;-142.75;100.00;75700.31;5053436;28;19917;-70
2022/07/20 07:16:47;;;;;;;;;;;;;;;-142.75;100.00;75672.78;5053454;28;19925;-71
2022/07/20 07:19:12;;;;;;;;;;;;;;;-142.75;100.00;75641.28;5053120;28;19913;-71
2022/07/20 07:21:37;;;;;;;;;;;;;;;-142.75;100.00;75621.59;5053311;28;19955;-71
2022/07/20 07:24:03;;;;;;;;;;;;;;;-142.75;100.00;75615.69;5053257;28;20354;-70
2022/07/20 07:26:28;;;;;;;;;;;;;;;-142.75;100.00;75603.88;5053162;28;19913;-70
2022/07/20 07:28:53;;;;;;;;;;;;;;;-142.75;100.00;75597.97;5051478;28;19922;-71
2022/07/20 07:31:18;;;;;;;;;;;;;;;-142.75;100.00;75590.13;5052140;28;19913;-70
2022/07/20 07:33:44;;;;;;;;;;;;;;;-142.75;100.00;75574.38;5051808;28;19944;-69
2022/07/20 07:36:09;;;;;;;;;;;;;;;-142.75;100.00;75544.84;5052908;28;19920;-71
2022/07/20 07:38:34;;;;;;;;;;;;;;;-142.75;100.00;75521.22;5052632;28;20290;-69
2022/07/20 07:41:00;;;;;;;;;;;;;;;-142.75;100.00;75505.50;5052843;28;20255;-71
2022/07/20 07:43:25;;;;;;;;;;;;;;;-142.75;100.00;75521.22;5050912;28;19927;-69
2022/07/20 07:45:50;;;;;;;;;;;;;;;-142.75;100.00;75517.28;5051738;28;19917;-71
2022/07/20 07:48:16;;;;;;;;;;;;;;;-142.75;100.00;75513.38;5050367;28;19913;-70
2022/07/20 07:50:42;;;;;;;;;;;;;;;-142.75;100.00;75493.69;5051991;28;19971;-71
2022/07/20 07:53:08;;;;;;;;;;;;;;;-142.75;100.00;75464.16;5051904;28;19916;-71
2022/07/20 07:55:34;;;;;;;;;;;;;;;-142.75;100.00;75454.31;5050641;28;19921;-71
2022/07/20 07:57:59;;;;;;;;;;;;;;;-142.75;100.00;75432.69;5051313;28;19923;-71
2022/07/20 08:00:24;;;;;;;;;;;;;;;-142.75;100.00;75399.22;5050560;28;19958;-70
2022/07/20 08:02:50;;;;;;;;;;;;;;;-142.75;100.00;75387.41;5051743;28;19996;-71
2022/07/20 08:05:15;;;;;;;;;;;;;;;-142.75;100.00;75375.59;5051709;28;19973;-71
2022/07/20 08:07:40;;;;;;;;;;;;;;;-142.75;100.00;75365.75;5051895;28;19913;-71
2022/07/20 08:10:07;;;;;;;;;;;;;;;-142.75;98.76;75381.50;5050120;28;19913;-72
2022/07/20 08:12:32;;;;;;;;;;;;;;;-142.75;100.00;75387.41;5049949;28;19919;-71
2022/07/20 08:14:58;;;;;;;;;;;;;;;-142.75;98.74;75393.31;5050191;28;20015;-72
2022/07/20 08:17:23;;;;;;;;;;;;;;;-142.75;100.00;75393.31;5050464;28;19916;-71
2022/07/20 08:19:49;;;;;;;;;;;;;;;-142.75;100.00;75365.75;5051020;28;19992;-72
2022/07/20 08:22:14;;;;;;;;;;;;;;;-142.75;88.93;75344.13;5051522;28;19967;-71
2022/07/20 08:24:39;;;;;;;;;;;;;;;-142.75;89.61;75316.56;5051249;28;19917;-71
2022/07/20 08:27:04;;;;;;;;;;;;;;;-142.75;87.12;75300.81;5049903;28;19913;-72
2022/07/20 08:29:29;;;;;;;;;;;;;;;-142.75;85.02;75283.13;5050803;28;20268;-73
2022/07/20 08:31:55;;;;;;;;;;;;;;;-142.75;77.75;75281.16;5051255;28;20158;-72
2022/07/20 08:34:20;;;;;;;;;;;;;;;-142.75;78.71;75304.75;5051061;28;19924;-72
2022/07/20 08:36:45;;;;;;;;;;;;;;;-142.75;79.69;75318.53;5051352;28;19934;-71
2022/07/20 08:39:11;;;;;;;;;;;;;;;-142.75;79.75;75357.91;5050834;28;19916;-71
2022/07/20 08:41:38;;;;;;;;;;;;;;;-142.75;79.39;75397.25;5051135;28;19912;-72
2022/07/20 08:44:04;;;;;;;;;;;;;;;-142.75;81.75;75413.00;5051142;28;20378;-72
2022/07/20 08:46:30;;;;;;;;;;;;;;;-142.75;84.88;75420.88;5049654;28;19920;-72
2022/07/20 08:48:55;;;;;;;;;;;;;;;-142.75;85.10;75434.66;5050642;28;19915;-72
2022/07/20 08:51:20;;;;;;;;;;;;;;;-142.75;86.23;75448.41;5050967;28;19913;-71
2022/07/20 08:53:47;;;;;;;;;;;;;;;-142.75;86.94;75464.16;5050874;28;19912;-71
2022/07/20 08:56:12;;;;;;;;;;;;;;;-142.75;90.86;75430.72;5049705;28;19975;-71
2022/07/20 08:58:37;;;;;;;;;;;;;;;-142.75;90.56;75373.63;5050280;28;19956;-71
2022/07/20 09:01:05;;;;;;;;;;;;;;;-142.75;90.00;75346.09;5051018;28;19920;-71
2022/07/20 09:03:30;;;;;;;;;;;;;;;-142.75;85.71;75322.47;5051056;28;20399;-71
2022/07/20 09:06:05;;;;;;;;;;;;;;;-142.75;87.97;75334.28;5050949;28;19917;-71
2022/07/20 09:08:30;;;;;;;;;;;;;;;-142.75;86.04;75359.88;5050188;28;19921;-71
2022/07/20 09:10:58;;;;;;;;;;;;;;;-142.75;85.41;75395.28;5049774;28;19958;-71
2022/07/20 09:13:27;;;;;;;;;;;;;;;-142.75;86.09;75389.38;5050821;28;20294;-72
2022/07/20 09:15:53;;;;;;;;;;;;;;;-142.75;83.76;75377.56;5050589;28;19927;-71
2022/07/20 09:18:18;;;;;;;;;;;;;;;-142.75;97.58;75367.72;5049114;28;19912;-71
2022/07/20 09:20:54;;;;;;;;;;;;;;;-142.75;93.31;75324.44;5050799;28;20011;-71
2022/07/20 09:23:33;;;;;;;;;;;;;;;-142.75;95.88;75287.06;5050756;28;19951;-71
2022/07/20 09:26:01;;;;;;;;;;;;;;;-142.75;92.47;75279.19;5050799;28;20298;-71
2022/07/20 09:28:46;;;;;;;;;;;;;;;-142.75;96.07;75253.59;5050208;28;19999;-73
2022/07/20 09:31:30;;;;;;;;;;;;;;;-142.75;85.32;75237.84;5050019;28;19917;-71
2022/07/20 09:34:00;;;;;;;;;;;;;;;-142.75;84.29;75292.97;5051442;28;19913;-71
2022/07/20 09:36:27;;;;;;;;;;;;;;;-142.75;85.84;75275.25;5050261;28;20347;-71
2022/07/20 09:38:52;;;;;;;;;;;;;;;-142.75;82.81;75304.75;5051204;28;19917;-71
2022/07/20 09:41:25;;;;;;;;;;;;;;;-142.75;79.50;75346.09;5050292;28;19920;-71
2022/07/20 09:43:50;;;;;;;;;;;;;;;-142.75;79.76;75369.69;5050232;28;19917;-70
2022/07/20 09:46:17;;;;;;;;;;;;;;;-142.75;79.02;75420.88;5050242;28;19913;-71
2022/07/20 09:48:43;;;;;;;;;;;;;;;-142.75;81.04;75436.59;5051053;28;19924;-71
2022/07/20 09:51:19;;;;;;;;;;;;;;;-142.75;80.46;75413.00;5053891;28;19958;-73
2022/07/20 09:53:44;;;;;;;;;;;;;;;-142.75;84.24;75385.44;5055066;28;19919;-70
2022/07/20 09:56:10;;;;;;;;;;;;;;;-142.75;86.23;75355.94;5054833;28;19916;-69
2022/07/20 09:58:35;;;;;;;;;;;;;;;-142.75;86.23;75346.09;5069215;23;19900;-70
2022/07/20 10:01:01;;;;;;;;;;;;;;;-142.75;82.78;75361.84;5054187;28;19921;-70
2022/07/20 10:03:27;;;;;;;;;;;;;;;-142.75;80.08;75373.63;5054006;28;20290;-70
2022/07/20 10:05:52;;;;;;;;;;;;;;;-142.75;78.46;75375.59;5054783;28;19924;-69
2022/07/20 10:08:18;;;;;;;;;;;;;;;-142.75;80.46;75377.56;5054441;28;19913;-70
2022/07/20 10:10:43;;;;;;;;;;;;;;;-142.75;83.05;75385.44;5054660;28;19913;-69
2022/07/20 10:13:08;;;;;;;;;;;;;;;-142.75;85.33;75389.38;5054521;28;20007;-69
2022/07/20 10:15:48;;;;;;;;;;;;;;;-142.75;80.94;75399.22;5054548;28;19913;-70
2022/07/20 10:18:14;;;;;;;;;;;;;;;-142.75;85.49;75385.44;5054272;28;19917;-70
2022/07/20 10:20:39;;;;;;;;;;;;;;;-142.75;81.28;75363.78;5054519;28;19919;-70
2022/07/20 10:23:13;;;;;;;;;;;;;;;-142.75;77.96;75353.97;5054551;28;20003;-70
2022/07/20 10:25:39;;;;;;;;;;;;;;;-142.75;82.72;75330.34;5054259;28;20436;-69
2022/07/20 10:28:22;;;;;;;;;;;;;;;-142.75;78.26;75365.75;5052874;28;19912;-70
2022/07/20 10:31:08;;;;;;;;;;;;;;;-142.75;79.19;75395.28;5054214;28;19924;-69
2022/07/20 10:33:35;;;;;;;;;;;;;;;-142.75;83.16;75424.81;5054336;28;19913;-69
2022/07/20 10:38:55;;;;;;;;;;;;;;;-142.75;84.09;75475.97;5053872;28;19926;-69
2022/07/20 10:41:32;;;;;;;;;;;;;;;-142.75;87.31;75491.72;5054193;28;19913;-69
2022/07/20 10:44:16;;;;;;;;;;;;;;;-142.75;92.51;75497.63;5054187;28;19920;-70
2022/07/20 10:46:41;;;;;;;;;;;;;;;-142.75;91.16;75475.97;5053023;28;20283;-69
2022/07/20 10:49:06;;;;;;;;;;;;;;;-142.75;93.99;75487.78;5052355;28;19913;-70
2022/07/20 10:51:32;;;;;;;;;;;;;;;-142.75;97.33;75513.38;5054071;28;19943;-70
2022/07/20 10:54:17;;;;;;;;;;;;;;;-142.75;99.40;75554.69;5052664;28;19913;-70
2022/07/20 10:56:42;;;;;;;;;;;;;;;-142.75;100.00;75546.81;5053656;28;19916;-69
2022/07/20 10:59:07;;;;;;;;;;;;;;;-142.75;100.00;75550.75;5053379;28;19921;-69
2022/07/20 11:01:32;;;;;;;;;;;;;;;-142.75;100.00;75538.94;5053305;28;19917;-70
2022/07/20 11:03:59;;;;;;;;;;;;;;;-142.75;100.00;75503.53;5053727;28;19999;-70
2022/07/20 11:06:24;;;;;;;;;;;;;;;-142.75;100.00;75501.56;5053670;28;19916;-69
2022/07/20 11:08:52;;;;;;;;;;;;;;;-142.75;100.00;75521.22;5053328;28;19979;-69
2022/07/20 11:11:22;;;;;;;;;;;;;;;-142.75;100.00;75560.59;5053473;28;20401;-69
2022/07/20 11:13:48;;;;;;;;;;;;;;;-142.75;100.00;75570.44;5053578;28;19967;-70
2022/07/20 11:16:14;;;;;;;;;;;;;;;-142.75;100.00;75597.97;5053477;28;20297;-69
2022/07/20 11:18:39;;;;;;;;;;;;;;;-142.75;100.00;75619.63;5053075;28;19919;-70
2022/07/20 11:21:08;;;;;;;;;;;;;;;-142.75;100.00;75605.84;5053350;28;19912;-69
2022/07/20 11:23:41;;;;;;;;;;;;;;;-142.75;100.00;75594.06;5052065;28;19912;-70
2022/07/20 11:26:07;;;;;;;;;;;;;;;-142.75;100.00;75592.09;5052009;28;20396;-69
2022/07/20 11:28:36;;;;;;;;;;;;;;;-142.75;100.00;75544.84;5052893;28;19998;-70
2022/07/20 11:31:02;;;;;;;;;;;;;;;-142.75;100.00;75550.75;5053148;28;19913;-70
2022/07/20 11:33:32;;;;;;;;;;;;;;;-142.75;100.00;75525.16;5053196;28;20008;-69
2022/07/20 11:36:02;;;;;;;;;;;;;;;-142.75;100.00;75495.66;5053067;28;20310;-69
2022/07/20 11:38:44;;;;;;;;;;;;;;;-142.75;100.00;75458.25;5052634;28;20418;-70
2022/07/20 11:41:10;;;;;;;;;;;;;;;-142.75;100.00;75474.00;5053076;28;19959;-69
2022/07/20 11:43:36;;;;;;;;;;;;;;;-142.75;100.00;75542.88;5052961;28;19966;-69
2022/07/20 11:46:08;;;;;;;;;;;;;;;-142.75;100.00;75544.84;5052846;28;19944;-69
2022/07/20 11:48:33;;;;;;;;;;;;;;;-142.75;100.00;75582.25;5052552;28;19912;-70
2022/07/20 11:50:58;;;;;;;;;;;;;;;-142.75;100.00;75660.97;5052720;28;19922;-70
2022/07/20 11:53:29;;;;;;;;;;;;;;;-142.75;100.00;75755.44;5051448;28;19912;-70
2022/07/20 11:55:58;;;;;;;;;;;;;;;-142.75;100.00;75763.28;5052619;28;19967;-70
2022/07/20 11:58:24;;;;;;;;;;;;;;;-142.75;100.00;75830.22;5052260;28;19967;-70
2022/07/20 12:00:50;;;;;;;;;;;;;;;-142.75;100.00;75873.50;5052639;28;19913;-69
2022/07/20 12:03:15;;;;;;;;;;;;;;;-142.75;100.00;75906.97;5052612;28;19921;-70
2022/07/20 12:05:40;;;;;;;;;;;;;;;-142.75;100.00;75881.38;5052429;28;19923;-69
2022/07/20 12:08:12;;;;;;;;;;;;;;;-142.75;100.00;75889.25;5052269;28;19924;-69
2022/07/20 12:10:40;;;;;;;;;;;;;;;-142.75;100.00;75865.63;5052548;28;19913;-70
2022/07/20 12:13:06;;;;;;;;;;;;;;;-142.75;100.00;75895.16;5051802;28;20333;-70
2022/07/20 12:15:31;;;;;;;;;;;;;;;-142.75;100.00;75908.94;5052352;28;19913;-70
2022/07/20 12:17:57;;;;;;;;;;;;;;;-142.75;100.00;75926.66;5052069;28;20402;-69
2022/07/20 12:20:23;;;;;;;;;;;;;;;-142.75;100.00;75932.56;5052408;28;19913;-69
2022/07/20 12:22:49;;;;;;;;;;;;;;;-142.75;100.00;75930.59;5052460;28;20005;-69